createdAt,value
2022-12-23T00:01:05.895Z,8.24
2022-12-23T00:03:33.695Z,8.03
2022-12-23T00:06:01.090Z,8.39
2022-12-23T00:08:30.477Z,8.02
2022-12-23T00:10:57.711Z,8.31
2022-12-23T00:13:43.034Z,8.16
2022-12-23T00:16:14.545Z,8.31
2022-12-23T00:18:42.102Z,8.35
2022-12-23T00:21:12.797Z,8.12
2022-12-23T00:23:47.050Z,8.41
2022-12-23T00:26:16.745Z,8.28
2022-12-23T00:28:44.425Z,8.16
2022-12-23T00:31:14.206Z,8.05
2022-12-23T00:33:44.065Z,8.17
2022-12-23T00:36:27.611Z,7.56
2022-12-23T00:39:19.586Z,8.05
2022-12-23T00:42:04.910Z,7.96
2022-12-23T00:44:31.847Z,7.93
2022-12-23T00:47:01.427Z,7.90
2022-12-23T00:49:44.323Z,7.91
2022-12-23T00:52:13.762Z,7.91
2022-12-23T00:54:40.685Z,7.58
2022-12-23T00:57:11.654Z,7.84
2022-12-23T00:59:41.516Z,7.86
2022-12-23T01:02:30.340Z,7.95
2022-12-23T01:05:19.735Z,7.98
2022-12-23T01:07:46.344Z,7.89
2022-12-23T01:10:13.076Z,7.85
2022-12-23T01:12:42.838Z,7.93
2022-12-23T01:15:10.103Z,7.95
2022-12-23T01:17:43.014Z,7.66
2022-12-23T01:20:10.278Z,8.02
2022-12-23T01:22:36.962Z,7.73
2022-12-23T01:25:04.446Z,8.05
2022-12-23T01:27:31.132Z,7.72
2022-12-23T01:29:57.980Z,8.14
2022-12-23T01:32:24.628Z,8.22
2022-12-23T01:34:51.294Z,8.00
2022-12-23T01:37:18.020Z,8.18
2022-12-23T01:39:44.727Z,8.24
2022-12-23T01:42:34.834Z,8.17
2022-12-23T01:45:21.887Z,8.02
2022-12-23T01:47:48.465Z,7.68
2022-12-23T01:51:03.472Z,8.00
2022-12-23T01:53:47.570Z,7.99
2022-12-23T01:56:37.018Z,7.49
2022-12-23T01:59:35.240Z,7.94
2022-12-23T02:02:23.811Z,8.09
2022-12-23T02:04:51.463Z,8.23
2022-12-23T02:07:37.354Z,8.26
2022-12-23T02:10:05.635Z,8.18
2022-12-23T02:12:35.688Z,7.81
2022-12-23T02:15:28.666Z,8.18
2022-12-23T02:18:13.678Z,7.95
2022-12-23T02:20:53.817Z,8.08
2022-12-23T02:23:44.692Z,7.94
2022-12-23T02:26:59.771Z,8.06
2022-12-23T02:29:39.928Z,8.06
2022-12-23T02:32:15.690Z,8.10
2022-12-23T02:35:03.717Z,7.72
2022-12-23T02:37:39.605Z,8.14
2022-12-23T02:40:28.253Z,8.13
2022-12-23T02:43:23.778Z,8.15
2022-12-23T02:46:22.914Z,8.18
2022-12-23T02:48:53.330Z,8.18
2022-12-23T02:51:22.849Z,8.25
2022-12-23T02:53:53.113Z,7.97
2022-12-23T02:56:22.781Z,8.05
2022-12-23T02:59:12.862Z,8.42
2022-12-23T03:01:42.242Z,8.58
2022-12-23T03:04:12.289Z,8.21
2022-12-23T03:06:44.750Z,7.04
2022-12-23T03:09:39.062Z,8.30
2022-12-23T03:12:16.162Z,8.06
2022-12-23T03:15:37.953Z,8.26
2022-12-23T03:18:46.722Z,7.40
2022-12-23T03:21:22.305Z,8.27
2022-12-23T03:24:05.452Z,8.25
2022-12-23T03:26:52.061Z,8.23
2022-12-23T03:29:35.563Z,7.73
2022-12-23T03:32:05.401Z,8.07
2022-12-23T03:34:38.477Z,8.17
2022-12-23T03:37:09.704Z,7.74
2022-12-23T03:39:46.898Z,8.14
2022-12-23T03:42:27.715Z,7.97
2022-12-23T03:45:36.500Z,7.47
2022-12-23T03:47:57.379Z,7.88
2022-12-23T03:50:25.472Z,8.08
2022-12-23T03:53:05.701Z,8.07
2022-12-23T03:56:09.952Z,8.11
2022-12-23T03:58:46.516Z,8.14
2022-12-23T04:01:36.615Z,8.19
2022-12-23T04:04:16.082Z,8.16
2022-12-23T04:06:50.834Z,8.07
2022-12-23T04:09:22.711Z,8.23
2022-12-23T04:11:49.748Z,8.28
2022-12-23T04:14:21.860Z,8.25
2022-12-23T04:16:49.869Z,8.35
2022-12-23T04:19:16.628Z,8.36
2022-12-23T04:21:45.910Z,8.25
2022-12-23T04:24:12.700Z,7.93
2022-12-23T04:26:39.429Z,8.21
2022-12-23T04:29:08.755Z,8.37
2022-12-23T04:31:35.475Z,8.38
2022-12-23T04:34:02.236Z,8.29
2022-12-23T04:36:28.908Z,8.40
2022-12-23T04:38:59.006Z,8.19
2022-12-23T04:41:25.840Z,8.43
2022-12-23T04:43:53.344Z,8.56
2022-12-23T04:46:20.586Z,8.64
2022-12-23T04:48:47.348Z,8.55
2022-12-23T04:51:14.147Z,8.67
2022-12-23T04:53:40.780Z,8.60
2022-12-23T04:56:07.508Z,8.64
2022-12-23T04:58:34.239Z,8.68
2022-12-23T05:01:07.152Z,8.11
2022-12-23T05:03:33.948Z,8.35
2022-12-23T05:06:00.660Z,8.50
2022-12-23T05:08:27.751Z,8.65
2022-12-23T05:10:54.493Z,8.73
2022-12-23T05:13:24.738Z,8.72
2022-12-23T05:15:55.384Z,8.70
2022-12-23T05:18:23.100Z,8.27
2022-12-23T05:20:51.121Z,8.61
2022-12-23T05:23:17.926Z,8.65
2022-12-23T05:25:51.367Z,8.61
2022-12-23T05:28:18.044Z,7.92
2022-12-23T05:30:44.704Z,8.76
2022-12-23T05:33:11.357Z,8.61
2022-12-23T05:35:38.062Z,8.76
2022-12-23T05:38:04.706Z,8.65
2022-12-23T05:40:33.752Z,8.78
2022-12-23T05:43:00.805Z,8.75
2022-12-23T05:45:27.600Z,8.69
2022-12-23T05:47:54.199Z,8.68
2022-12-23T05:50:20.772Z,8.56
2022-12-23T05:52:50.505Z,8.67
2022-12-23T05:55:17.214Z,8.67
2022-12-23T05:57:43.841Z,8.39
2022-12-23T06:00:13.885Z,8.68
2022-12-23T06:02:44.391Z,8.67
2022-12-23T06:05:14.843Z,8.93
2022-12-23T06:07:41.806Z,8.97
2022-12-23T06:10:14.586Z,8.80
2022-12-23T06:12:41.269Z,8.92
2022-12-23T06:15:08.816Z,8.83
2022-12-23T06:17:35.430Z,8.82
2022-12-23T06:20:02.141Z,7.84
2022-12-23T06:22:29.075Z,8.55
2022-12-23T06:24:55.952Z,8.80
2022-12-23T06:27:22.771Z,8.41
2022-12-23T06:29:49.420Z,8.71
2022-12-23T06:32:16.056Z,8.46
2022-12-23T06:34:42.657Z,8.73
2022-12-23T06:37:09.299Z,8.63
2022-12-23T06:39:36.014Z,8.32
2022-12-23T06:42:02.698Z,8.20
2022-12-23T06:44:31.317Z,8.32
2022-12-23T06:47:01.099Z,8.20
2022-12-23T06:49:30.621Z,8.47
2022-12-23T06:51:57.156Z,8.51
2022-12-23T06:54:26.002Z,8.52
2022-12-23T06:56:52.733Z,8.44
2022-12-23T06:59:20.949Z,8.56
2022-12-23T07:01:59.536Z,8.87
2022-12-23T07:04:26.527Z,8.55
2022-12-23T07:06:53.259Z,8.61
2022-12-23T07:09:20.023Z,9.13
2022-12-23T07:11:49.801Z,8.87
2022-12-23T07:14:19.520Z,9.19
2022-12-23T07:16:46.513Z,9.05
2022-12-23T07:19:16.336Z,8.72
2022-12-23T07:21:42.979Z,9.39
2022-12-23T07:24:09.881Z,9.08
2022-12-23T07:26:36.560Z,9.25
2022-12-23T07:29:12.315Z,9.12
2022-12-23T07:31:44.729Z,9.41
2022-12-23T07:34:11.612Z,9.41
2022-12-23T07:36:38.346Z,9.18
2022-12-23T07:39:07.426Z,9.29
2022-12-23T07:41:34.072Z,9.25
2022-12-23T07:44:00.854Z,9.39
2022-12-23T07:46:27.654Z,9.46
2022-12-23T07:48:57.584Z,9.70
2022-12-23T07:51:29.092Z,9.84
2022-12-23T07:53:55.915Z,9.65
2022-12-23T07:56:22.823Z,9.36
2022-12-23T07:58:50.508Z,9.49
2022-12-23T08:01:18.239Z,9.53
2022-12-23T08:03:47.354Z,9.55
2022-12-23T08:06:18.560Z,9.33
2022-12-23T08:08:46.820Z,9.48
2022-12-23T08:11:15.251Z,9.55
2022-12-23T08:13:43.931Z,9.37
2022-12-23T08:16:14.448Z,9.14
2022-12-23T08:18:56.738Z,9.46
2022-12-23T08:21:26.072Z,9.41
2022-12-23T08:23:54.201Z,9.44
2022-12-23T08:26:24.046Z,9.44
2022-12-23T08:28:53.758Z,9.53
2022-12-23T08:31:28.631Z,9.47
2022-12-23T08:34:00.566Z,9.60
2022-12-23T08:36:32.951Z,9.77
2022-12-23T08:39:02.794Z,9.84
2022-12-23T08:41:32.824Z,10.01
2022-12-23T08:43:59.903Z,9.46
2022-12-23T08:46:29.702Z,10.03
2022-12-23T08:48:58.631Z,9.88
2022-12-23T08:51:26.289Z,9.74
2022-12-23T08:54:00.445Z,9.72
2022-12-23T08:56:32.067Z,9.57
2022-12-23T08:59:02.902Z,9.98
2022-12-23T09:01:32.908Z,9.47
2022-12-23T09:04:06.053Z,9.86
2022-12-23T09:06:42.913Z,9.83
2022-12-23T09:09:11.986Z,8.78
2022-12-23T09:14:23.934Z,9.54
2022-12-23T09:16:52.619Z,9.46
2022-12-23T09:19:19.452Z,9.71
2022-12-23T09:21:46.197Z,9.57
2022-12-23T09:24:14.187Z,9.71
2022-12-23T09:26:40.925Z,9.56
2022-12-23T09:29:07.660Z,9.60
2022-12-23T09:31:37.745Z,9.69
2022-12-23T09:34:11.117Z,9.43
2022-12-23T09:36:37.821Z,9.62
2022-12-23T09:39:06.179Z,9.86
2022-12-23T09:41:46.361Z,9.85
2022-12-23T09:44:21.252Z,9.41
2022-12-23T09:46:55.456Z,10.01
2022-12-23T09:49:24.012Z,9.72
2022-12-23T09:51:57.207Z,9.87
2022-12-23T09:54:28.572Z,9.82
2022-12-23T09:56:58.153Z,9.29
2022-12-23T09:59:43.054Z,9.94
2022-12-23T10:02:40.322Z,9.68
2022-12-23T10:05:20.294Z,9.81
2022-12-23T10:07:53.039Z,9.71
2022-12-23T10:11:00.696Z,9.81
2022-12-23T10:13:41.726Z,9.67
2022-12-23T10:16:26.131Z,9.62
2022-12-23T10:19:00.000Z,9.61
2022-12-23T10:21:30.152Z,9.61
2022-12-23T10:23:56.826Z,9.83
2022-12-23T10:26:24.957Z,9.84
2022-12-23T10:29:21.085Z,9.24
2022-12-23T10:32:00.577Z,9.84
2022-12-23T10:34:50.968Z,9.83
2022-12-23T10:37:37.033Z,9.69
2022-12-23T10:40:41.136Z,9.72
2022-12-23T10:43:19.097Z,9.81
2022-12-23T10:46:26.216Z,9.62
2022-12-23T10:49:38.463Z,9.94
2022-12-23T10:52:27.423Z,9.72
2022-12-23T10:54:54.135Z,9.82
2022-12-23T10:57:21.312Z,9.80
2022-12-23T10:59:48.018Z,9.86
2022-12-23T11:02:47.373Z,9.87
2022-12-23T11:05:24.526Z,9.65
2022-12-23T11:07:51.461Z,9.75
2022-12-23T11:10:20.994Z,9.26
2022-12-23T11:12:53.237Z,9.72
2022-12-23T11:15:29.047Z,9.82
2022-12-23T11:18:06.320Z,10.01
2022-12-23T11:20:35.078Z,10.16
2022-12-23T11:23:06.632Z,10.18
2022-12-23T11:25:41.040Z,10.20
2022-12-23T11:28:12.087Z,10.45
2022-12-23T11:31:00.439Z,10.45
2022-12-23T11:33:32.772Z,9.78
2022-12-23T11:36:21.729Z,10.11
2022-12-23T11:39:14.606Z,10.25
2022-12-23T11:41:50.313Z,10.08
2022-12-23T11:44:38.333Z,9.73
2022-12-23T11:47:34.293Z,10.22
2022-12-23T11:50:09.088Z,10.11
2022-12-23T11:52:36.153Z,10.38
2022-12-23T11:55:06.220Z,10.53
2022-12-23T11:57:49.958Z,10.22
2022-12-23T12:00:55.317Z,10.15
2022-12-23T12:03:40.353Z,10.36
2022-12-23T12:06:07.999Z,10.68
2022-12-23T12:08:40.519Z,10.81
2022-12-23T12:11:18.272Z,10.87
2022-12-23T12:13:51.368Z,10.80
2022-12-23T12:16:42.123Z,10.79
2022-12-23T12:19:38.985Z,11.26
2022-12-23T12:22:17.858Z,10.67
2022-12-23T12:24:50.488Z,10.95
2022-12-23T12:27:27.597Z,11.51
2022-12-23T12:30:02.074Z,11.28
2022-12-23T12:32:57.761Z,11.28
2022-12-23T12:35:30.359Z,11.14
2022-12-23T12:38:21.308Z,11.08
2022-12-23T12:40:55.235Z,10.95
2022-12-23T12:43:37.511Z,11.02
2022-12-23T12:46:23.129Z,11.03
2022-12-23T12:49:20.469Z,10.61
2022-12-23T12:52:01.642Z,10.86
2022-12-23T12:54:44.248Z,10.80
2022-12-23T12:57:15.931Z,10.45
2022-12-23T12:59:49.010Z,10.78
2022-12-23T13:03:02.545Z,10.86
2022-12-23T13:05:53.382Z,10.50
2022-12-23T13:08:46.615Z,10.90
2022-12-23T13:11:28.692Z,11.06
2022-12-23T13:14:23.748Z,11.42
2022-12-23T13:17:00.165Z,11.48
2022-12-23T13:19:40.367Z,11.37
2022-12-23T13:22:31.296Z,11.31
2022-12-23T13:25:10.401Z,11.43
2022-12-23T13:27:57.784Z,11.33
2022-12-23T13:30:37.173Z,11.30
2022-12-23T13:33:13.123Z,11.37
2022-12-23T13:36:13.267Z,11.23
2022-12-23T13:38:57.831Z,11.37
2022-12-23T13:41:24.508Z,11.40
2022-12-23T13:44:00.580Z,11.10
2022-12-23T13:46:30.218Z,10.87
2022-12-23T13:49:05.027Z,11.44
2022-12-23T13:51:43.428Z,11.67
2022-12-23T13:54:33.601Z,11.76
2022-12-23T13:57:25.537Z,11.22
2022-12-23T14:00:27.093Z,11.62
2022-12-23T14:03:03.115Z,11.70
2022-12-23T14:05:43.638Z,11.68
2022-12-23T14:08:19.321Z,11.48
2022-12-23T14:11:08.303Z,11.27
2022-12-23T14:14:01.244Z,11.05
2022-12-23T14:17:05.692Z,11.49
2022-12-23T14:20:07.918Z,11.03
2022-12-23T14:22:51.561Z,10.97
2022-12-23T14:25:54.554Z,10.64
2022-12-23T14:28:44.091Z,11.32
2022-12-23T14:31:46.822Z,11.28
2022-12-23T14:34:23.472Z,11.19
2022-12-23T14:37:14.957Z,11.19
2022-12-23T14:39:42.378Z,11.09
2022-12-23T14:42:16.629Z,11.00
2022-12-23T14:44:49.229Z,11.00
2022-12-23T14:47:40.617Z,11.14
2022-12-23T14:50:32.678Z,11.14
2022-12-23T14:53:04.334Z,10.94
2022-12-23T14:55:32.278Z,10.65
2022-12-23T14:58:17.565Z,11.12
2022-12-23T15:00:51.035Z,11.09
2022-12-23T15:03:23.236Z,10.97
2022-12-23T15:05:51.074Z,11.09
2022-12-23T15:08:35.923Z,11.03
2022-12-23T15:11:36.187Z,10.96
2022-12-23T15:14:11.870Z,11.10
2022-12-23T15:16:45.122Z,11.07
2022-12-23T15:19:22.213Z,11.11
2022-12-23T15:22:15.296Z,11.09
2022-12-23T15:24:52.052Z,10.84
2022-12-23T15:27:27.653Z,11.04
2022-12-23T15:30:05.441Z,10.89
2022-12-23T15:32:39.518Z,10.82
2022-12-23T15:35:07.043Z,11.00
2022-12-23T15:37:34.650Z,10.95
2022-12-23T15:40:11.434Z,11.00
2022-12-23T15:42:48.336Z,10.85
2022-12-23T15:45:36.176Z,10.67
2022-12-23T15:48:22.164Z,11.11
2022-12-23T15:50:50.947Z,11.21
2022-12-23T15:53:23.078Z,11.38
2022-12-23T15:55:50.272Z,11.32
2022-12-23T15:58:21.585Z,11.52
2022-12-23T16:01:01.301Z,11.53
2022-12-23T16:03:44.020Z,11.42
2022-12-23T16:06:16.718Z,11.77
2022-12-23T16:08:44.762Z,11.76
2022-12-23T16:11:14.359Z,11.69
2022-12-23T16:13:59.532Z,11.70
2022-12-23T16:16:46.630Z,11.43
2022-12-23T16:19:44.302Z,11.47
2022-12-23T16:22:28.839Z,10.25
2022-12-23T16:25:26.503Z,10.83
2022-12-23T16:28:09.197Z,10.95
2022-12-23T16:30:50.032Z,10.55
2022-12-23T16:33:40.922Z,11.10
2022-12-23T16:36:26.367Z,11.05
2022-12-23T16:38:59.994Z,11.03
2022-12-23T16:41:26.687Z,10.90
2022-12-23T16:43:53.412Z,10.97
2022-12-23T16:46:23.165Z,11.03
2022-12-23T16:48:55.876Z,11.28
2022-12-23T16:51:23.467Z,10.96
2022-12-23T16:53:57.771Z,11.02
2022-12-23T16:56:50.422Z,11.15
2022-12-23T16:59:21.345Z,11.01
2022-12-23T17:02:03.689Z,11.05
2022-12-23T17:04:34.863Z,11.09
2022-12-23T17:07:01.743Z,10.86
2022-12-23T17:09:28.417Z,10.82
2022-12-23T17:11:55.269Z,10.70
2022-12-23T17:14:24.772Z,10.78
2022-12-23T17:16:51.976Z,10.88
2022-12-23T17:19:27.384Z,10.80
2022-12-23T17:22:11.941Z,10.74
2022-12-23T17:24:39.026Z,10.60
2022-12-23T17:27:16.426Z,10.82
2022-12-23T17:29:46.444Z,10.82
2022-12-23T17:32:15.596Z,10.45
2022-12-23T17:34:45.134Z,10.40
2022-12-23T17:37:18.095Z,10.74
2022-12-23T17:39:45.515Z,10.90
2022-12-23T17:42:24.946Z,10.66
2022-12-23T17:44:52.453Z,10.94
2022-12-23T17:47:21.455Z,10.86
2022-12-23T17:49:48.156Z,10.89
2022-12-23T17:52:17.824Z,10.82
2022-12-23T17:54:46.674Z,10.45
2022-12-23T18:00:33.874Z,10.77
2022-12-23T18:03:06.852Z,10.78
2022-12-23T18:05:36.703Z,10.76
2022-12-23T18:08:04.793Z,10.70
2022-12-23T18:10:42.335Z,10.78
2022-12-23T18:13:15.682Z,10.77
2022-12-23T18:15:47.365Z,10.84
2022-12-23T18:18:27.479Z,10.50
2022-12-23T18:21:00.889Z,10.74
2022-12-23T18:23:29.856Z,10.49
2022-12-23T18:26:00.701Z,10.69
2022-12-23T18:28:27.677Z,10.55
2022-12-23T18:31:00.193Z,10.60
2022-12-23T18:33:30.456Z,10.65
2022-12-23T18:35:57.280Z,10.68
2022-12-23T18:38:24.167Z,10.57
2022-12-23T18:40:55.806Z,10.72
2022-12-23T18:43:25.130Z,10.53
2022-12-23T18:46:00.117Z,10.50
2022-12-23T18:48:30.252Z,10.65
2022-12-23T18:50:56.891Z,10.52
2022-12-23T18:53:27.059Z,10.72
2022-12-23T18:55:54.466Z,10.65
2022-12-23T18:58:24.041Z,10.66
2022-12-23T19:00:53.101Z,10.64
2022-12-23T19:03:25.698Z,10.26
2022-12-23T19:05:53.441Z,10.69
2022-12-23T19:08:29.923Z,10.67
2022-12-23T19:10:56.485Z,10.59
2022-12-23T19:13:23.448Z,10.98
2022-12-23T19:15:52.739Z,10.97
2022-12-23T19:18:22.029Z,10.85
2022-12-23T19:20:49.505Z,10.50
2022-12-23T19:23:16.840Z,10.78
2022-12-23T19:25:54.824Z,10.73
2022-12-23T19:28:23.443Z,10.63
2022-12-23T19:30:51.194Z,10.69
2022-12-23T19:33:23.222Z,10.33
2022-12-23T19:35:52.620Z,10.63
2022-12-23T19:38:24.937Z,10.63
2022-12-23T19:41:01.228Z,10.51
2022-12-23T19:43:27.967Z,10.26
2022-12-23T19:45:59.425Z,10.54
2022-12-23T19:48:31.666Z,10.55
2022-12-23T19:51:03.889Z,10.49
2022-12-23T19:53:36.221Z,10.71
2022-12-23T19:56:15.829Z,10.68
2022-12-23T19:58:48.814Z,10.71
2022-12-23T20:01:24.207Z,10.58
2022-12-23T20:03:55.467Z,10.29
2022-12-23T20:06:27.958Z,10.58
2022-12-23T20:09:00.250Z,10.58
2022-12-23T20:11:30.608Z,10.63
2022-12-23T20:13:58.616Z,10.67
2022-12-23T20:16:31.851Z,10.66
2022-12-23T20:19:01.778Z,10.50
2022-12-23T20:21:31.720Z,10.36
2022-12-23T20:24:04.981Z,10.10
2022-12-23T20:26:35.598Z,10.52
2022-12-23T20:29:02.503Z,10.25
2022-12-23T20:31:35.632Z,10.40
2022-12-23T20:34:07.586Z,10.44
2022-12-23T20:36:35.715Z,10.52
2022-12-23T20:39:04.420Z,10.50
2022-12-23T20:41:34.441Z,10.34
2022-12-23T20:44:33.282Z,10.38
2022-12-23T20:46:52.443Z,10.40
2022-12-23T20:49:24.488Z,10.40
2022-12-23T20:51:54.214Z,10.41
2022-12-23T20:54:33.365Z,10.06
2022-12-23T20:57:05.188Z,10.47
2022-12-23T20:59:35.207Z,10.50
2022-12-23T21:02:02.129Z,10.32
2022-12-23T21:04:35.354Z,10.43
2022-12-23T21:07:10.755Z,10.46
2022-12-23T21:09:37.346Z,10.22
2022-12-23T21:12:04.562Z,10.39
2022-12-23T21:14:31.474Z,10.29
2022-12-23T21:16:58.123Z,10.38
2022-12-23T21:19:29.382Z,9.88
2022-12-23T21:21:56.988Z,10.01
2022-12-23T21:24:24.003Z,10.20
2022-12-23T21:27:05.572Z,9.80
2022-12-23T21:29:32.234Z,10.12
2022-12-23T21:32:01.901Z,9.97
2022-12-23T21:34:28.768Z,10.11
2022-12-23T21:36:55.510Z,9.59
2022-12-23T21:39:22.181Z,9.92
2022-12-23T21:41:51.360Z,9.76
2022-12-23T21:44:18.487Z,9.89
2022-12-23T21:46:45.083Z,9.56
2022-12-23T21:49:14.270Z,9.96
2022-12-23T21:51:43.918Z,9.96
2022-12-23T21:54:11.874Z,9.94
2022-12-23T21:56:39.650Z,9.72
2022-12-23T21:59:12.678Z,9.81
2022-12-23T22:01:39.481Z,9.66
2022-12-23T22:04:06.339Z,9.78
2022-12-23T22:06:38.771Z,9.76
2022-12-23T22:09:07.512Z,9.86
2022-12-23T22:11:36.773Z,9.87
2022-12-23T22:14:06.449Z,9.61
2022-12-23T22:16:34.925Z,9.72
2022-12-23T22:19:05.326Z,9.78
2022-12-23T22:21:33.421Z,9.73
2022-12-23T22:24:00.390Z,9.75
2022-12-23T22:26:29.580Z,9.71
2022-12-23T22:28:58.008Z,9.61
2022-12-23T22:31:36.330Z,9.71
2022-12-23T22:34:03.727Z,9.75
2022-12-23T22:36:33.054Z,9.48
2022-12-23T22:39:01.409Z,9.74
2022-12-23T22:41:29.668Z,9.84
2022-12-23T22:44:00.056Z,9.91
2022-12-23T22:46:27.813Z,9.30
2022-12-23T22:48:56.547Z,9.81
2022-12-23T22:51:28.753Z,9.69
2022-12-23T22:53:57.900Z,9.78
2022-12-23T22:56:27.999Z,9.99
2022-12-23T22:58:55.108Z,9.93
2022-12-23T23:01:23.082Z,9.73
2022-12-23T23:03:56.740Z,9.95
2022-12-23T23:06:29.166Z,9.90
2022-12-23T23:09:05.265Z,9.79
2022-12-23T23:11:31.903Z,9.77
2022-12-23T23:13:58.934Z,9.85
2022-12-23T23:16:25.926Z,9.75
2022-12-23T23:18:53.637Z,9.94
2022-12-23T23:21:20.737Z,9.93
2022-12-23T23:23:47.768Z,9.91
2022-12-23T23:26:15.015Z,9.84
2022-12-23T23:28:44.641Z,9.80
2022-12-23T23:34:00.689Z,9.94
2022-12-23T23:36:27.330Z,9.86
2022-12-23T23:38:54.015Z,9.49
2022-12-23T23:41:25.945Z,9.95
2022-12-23T23:43:56.695Z,9.99
2022-12-23T23:46:26.609Z,9.75
2022-12-23T23:48:56.395Z,10.09
2022-12-23T23:51:23.775Z,10.13
2022-12-23T23:53:50.360Z,10.31
2022-12-23T23:56:23.739Z,10.34
2022-12-23T23:58:51.615Z,10.37
